Pagina principale
METAR-TAF:

METAR-TAF

Aeroporti :

Ilulissat, Groenlandia

latitudine: 69-14N, longitudine: 051-04W, altezza: 29 m

Osservazione

Il bollettino è stato emesso 34 minuti fa, alle 18:50 UTC
Vento 10 kt da est/sud-est
Temperature -15°C
Umidità 65%
Pressione 1007 hPa
Visibilità 10 km o più
Nuvoloso ad un'altezza di 3000 ft
rovesci di neve

METAR: BGJN 241850Z 12010KT 9999 -SHSN BKN030 M15/M20 Q1007

Ora: 16:24 (19:24 UTC)

Previsione

Il bollettino è stato emesso 5 ore e 0 minuti fa, alle 14:24 UTC
Previsione valida dal 24 alle 15 UTC al 24 alle 21 UTC
Vento 8 kt da sud/sud-est
Visibilità 10 km o più
Nuvoloso ad un'altezza di 2500 ft
Temporaneamente
dal 24 alle 15 UTC al 24 alle 21 UTC
Vento 8 kt da direzioni variabili
Visibilità: 4000 m
Nuvoloso ad un'altezza di 1400 ft
neve debole

TAF: BGJN 241424Z 2415/2421 16008KT 9999 BKN025 TEMPO 2415/2421 VRB08KT 4000 -SN BKN014

Osservazioni e previsioni meteorologiche di più di 4000 aeroporti (messaggi METAR e TAF).

Le stazioni disponibili sono rappresentate dai dischi gialli e rossi sulla carta.

Puntare il mouse per vedere il nome della stazione.

Clicca sopra per visualizzare le osservazioni e previsioni meteorologiche.

Per cambiare la mappa : fare clic sui pulsanti verdi con una croce nera per ingrandire, il pulsante verde con un trattino per diminuire, o sulla freccia verde per le mappe adiacenti.


METAR-TAF: